Time;durP1;ratioP1;P1;durP2;ratioP2;P2;SDS_P1;SDS_P2;PMS_P1;PMS_P2;Temp;Humidity;BMP_temperature;BMP_pressure;BME280_temperature;BME280_humidity;BME280_pressure;Samples;Min_cycle;Max_cycle;Signal;HPM_P1;HPM_P2
2022/07/02 00:00:18;;;;;;;0.10;0.10;;;;;;;17.78;59.83;102201.03;5049845;28;20116;-79
2022/07/02 00:02:48;;;;;;;0.00;0.00;;;;;;;17.76;59.58;102196.63;5048109;28;20022;-79
2022/07/02 00:05:21;;;;;;;0.10;0.10;;;;;;;17.77;59.61;102201.06;5039208;28;20028;-79
2022/07/02 00:07:48;;;;;;;0.00;0.00;;;;;;;17.69;60.75;102200.41;5050092;28;20159;-78
2022/07/02 00:10:15;;;;;;;0.10;0.10;;;;;;;17.70;60.06;102207.53;5037042;28;20084;-79
2022/07/02 00:12:41;;;;;;;0.10;0.10;;;;;;;17.66;60.51;102200.47;5035043;28;20029;-78
2022/07/02 00:15:08;;;;;;;0.00;0.00;;;;;;;17.65;60.12;102188.88;5035692;28;20485;-78
2022/07/02 00:17:34;;;;;;;0.08;0.08;;;;;;;17.64;60.29;102189.81;5035361;28;20025;-79
2022/07/02 00:20:02;;;;;;;0.00;0.00;;;;;;;17.63;60.15;102193.41;5037234;28;20021;-79
2022/07/02 00:22:29;;;;;;;0.00;0.00;;;;;;;17.62;60.06;102199.72;5032851;28;20048;-79
2022/07/02 00:24:55;;;;;;;0.00;0.00;;;;;;;17.60;60.43;102201.53;5041777;28;20021;-78
2022/07/02 00:27:22;;;;;;;0.00;0.00;;;;;;;17.55;60.60;102198.97;5036979;28;20171;-78
2022/07/02 00:29:55;;;;;;;0.32;0.32;;;;;;;17.55;60.82;102193.63;5035791;28;20028;-79
2022/07/02 00:32:24;;;;;;;0.00;0.00;;;;;;;17.53;60.85;102191.91;5033309;28;20083;-79
2022/07/02 00:34:50;;;;;;;0.05;0.05;;;;;;;17.51;61.00;102197.31;5040840;28;20035;-78
2022/07/02 00:37:17;;;;;;;0.00;0.00;;;;;;;17.50;60.71;102195.56;5041783;28;20029;-79
2022/07/02 00:39:43;;;;;;;0.10;0.10;;;;;;;17.49;60.71;102200.97;5035733;28;20049;-79
2022/07/02 00:42:10;;;;;;;0.00;0.00;;;;;;;17.48;60.65;102202.75;5032976;28;20056;-79
2022/07/02 00:44:37;;;;;;;0.10;0.10;;;;;;;17.47;60.64;102195.66;5037587;28;20480;-79
2022/07/02 00:47:06;;;;;;;0.00;0.00;;;;;;;17.45;60.96;102198.34;5043607;28;20026;-79
2022/07/02 00:49:34;;;;;;;0.00;0.00;;;;;;;17.44;60.58;102211.81;5035755;28;20025;-79
2022/07/02 00:52:02;;;;;;;0.10;0.10;;;;;;;17.40;61.68;102207.44;5033209;28;20504;-78
2022/07/02 00:54:28;;;;;;;0.10;0.10;;;;;;;17.39;61.11;102203.00;5037028;28;20051;-78
2022/07/02 00:56:54;;;;;;;0.00;0.00;;;;;;;17.38;61.17;102198.56;5046464;28;20033;-79
2022/07/02 00:59:22;;;;;;;0.10;0.10;;;;;;;17.37;61.55;102199.47;5035521;28;20084;-78
2022/07/02 01:01:49;;;;;;;0.10;0.10;;;;;;;17.33;61.49;102200.50;5031271;28;20456;-79
2022/07/02 01:04:16;;;;;;;0.28;0.28;;;;;;;17.34;61.11;102195.09;5035237;28;20048;-79
2022/07/02 01:06:42;;;;;;;0.10;0.10;;;;;;;17.33;61.54;102201.38;5046569;28;20025;-79
2022/07/02 01:12:10;;;;;;;0.10;0.10;;;;;;;17.28;61.34;102190.78;5032132;28;20037;-78
2022/07/02 01:14:37;;;;;;;0.00;0.00;;;;;;;17.26;61.33;102194.44;5038337;28;20037;-79
2022/07/02 01:17:03;;;;;;;0.10;0.10;;;;;;;17.25;60.75;102192.66;5043684;28;20036;-79
2022/07/02 01:19:30;;;;;;;0.00;0.00;;;;;;;17.23;61.52;102189.13;5021768;28;20060;-79
2022/07/02 01:24:54;;;;;;;0.05;0.05;;;;;;;17.19;60.96;102185.66;5072581;28;20360;-79
2022/07/02 01:27:22;;;;;;;0.00;0.00;;;;;;;17.17;60.93;102191.97;5045888;28;20072;-79
2022/07/02 01:29:49;;;;;;;0.00;0.00;;;;;;;17.16;60.96;102192.91;5052856;28;20112;-79
2022/07/02 01:32:15;;;;;;;1.17;1.17;;;;;;;17.13;61.15;102186.72;5051282;28;20489;-78
2022/07/02 01:37:22;;;;;;;0.68;0.68;;;;;;;17.09;60.47;102190.38;5080040;28;20792;-79
2022/07/02 01:39:48;;;;;;;0.10;0.10;;;;;;;17.06;60.55;102194.94;5072095;28;20389;-79
2022/07/02 01:42:15;;;;;;;0.00;0.00;;;;;;;17.02;60.31;102194.13;5073176;28;20033;-80
2022/07/02 01:44:43;;;;;;;0.30;0.30;;;;;;;16.96;60.08;102200.53;5071257;28;20025;-80
2022/07/02 01:47:11;;;;;;;0.00;0.00;;;;;;;16.99;59.97;102194.22;5080334;28;20024;-79
2022/07/02 01:49:38;;;;;;;0.03;0.03;;;;;;;16.98;59.67;102192.44;5073670;28;20071;-80
2022/07/02 01:52:05;;;;;;;0.10;0.10;;;;;;;17.00;59.58;102201.34;5070912;28;20154;-80
2022/07/02 01:54:32;;;;;;;0.10;0.10;;;;;;;16.97;59.63;102194.25;5069382;28;20025;-80
2022/07/02 01:57:00;;;;;;;0.08;0.08;;;;;;;16.96;59.34;102189.81;5079244;28;20024;-80
2022/07/02 01:59:26;;;;;;;0.25;0.25;;;;;;;16.96;59.06;102194.31;5076023;28;20028;-79
2022/07/02 02:01:52;;;;;;;0.00;0.00;;;;;;;16.92;59.21;102197.97;5072066;28;20504;-80
2022/07/02 02:04:19;;;;;;;0.00;0.00;;;;;;;16.94;59.28;102185.44;5069148;28;20044;-80
2022/07/02 02:06:45;;;;;;;0.05;0.05;;;;;;;16.91;59.62;102190.81;5076705;28;20023;-79
2022/07/02 02:09:11;;;;;;;0.10;0.10;;;;;;;16.85;59.36;102197.22;5075099;28;20082;-79
2022/07/02 02:11:37;;;;;;;0.00;0.00;;;;;;;16.85;59.37;102196.31;5068127;28;20463;-80
2022/07/02 02:14:04;;;;;;;0.00;0.00;;;;;;;16.81;59.23;102192.88;5069628;28;20028;-79
2022/07/02 02:16:31;;;;;;;0.00;0.00;;;;;;;16.81;59.58;102201.75;5075113;28;20446;-80
2022/07/02 02:18:59;;;;;;;0.10;0.10;;;;;;;16.79;59.01;102197.38;5081223;28;20325;-79
2022/07/02 02:21:26;;;;;;;0.10;0.10;;;;;;;16.80;59.24;102196.44;5069004;28;20029;-79
2022/07/02 02:23:54;;;;;;;0.00;0.00;;;;;;;16.73;59.44;102197.50;5070748;28;20081;-79
2022/07/02 02:26:20;;;;;;;0.10;0.10;;;;;;;16.73;59.24;102198.38;5065009;28;20021;-79
2022/07/02 02:28:46;;;;;;;0.20;0.20;;;;;;;16.72;59.66;102201.09;5085141;28;20021;-79
2022/07/02 02:31:13;;;;;;;0.00;0.00;;;;;;;16.68;59.86;102192.25;5070362;28;20040;-80
2022/07/02 02:33:39;;;;;;;0.00;0.00;;;;;;;16.65;59.47;102203.06;5071452;28;20087;-79
2022/07/02 02:36:05;;;;;;;0.00;0.00;;;;;;;16.63;59.91;102194.16;5070512;28;20024;-79
2022/07/02 02:38:31;;;;;;;0.10;0.10;;;;;;;16.59;59.96;102196.03;5075016;28;20062;-79
2022/07/02 02:40:58;;;;;;;0.10;0.10;;;;;;;16.58;60.16;102193.41;5078967;28;20033;-80
2022/07/02 02:43:24;;;;;;;0.10;0.10;;;;;;;16.56;60.05;102192.56;5068282;28;20041;-79
2022/07/02 02:45:50;;;;;;;0.03;0.03;;;;;;;16.50;60.17;102186.44;5073465;28;20530;-80
2022/07/02 02:48:16;;;;;;;0.32;0.32;;;;;;;16.48;60.29;102188.25;5072939;28;20107;-80
2022/07/02 02:50:43;;;;;;;0.08;0.08;;;;;;;16.45;59.97;102188.34;5067712;28;20267;-79
2022/07/02 02:53:09;;;;;;;0.03;0.03;;;;;;;16.43;60.18;102186.63;5058344;28;20124;-79
2022/07/02 02:55:35;;;;;;;0.00;0.00;;;;;;;16.44;59.89;102185.72;5057074;28;20443;-79
2022/07/02 02:58:01;;;;;;;0.10;0.10;;;;;;;16.40;59.99;102184.00;5075214;28;20032;-79
2022/07/02 03:00:27;;;;;;;0.00;0.00;;;;;;;16.39;59.67;102192.97;5052023;28;20082;-79
2022/07/02 03:02:53;;;;;;;0.00;0.00;;;;;;;16.40;59.90;102186.66;5057394;28;20167;-79
2022/07/02 03:05:19;;;;;;;0.10;0.10;;;;;;;16.39;60.12;102188.47;5056364;28;20170;-79
2022/07/02 03:07:45;;;;;;;0.10;0.10;;;;;;;16.38;60.16;102186.72;5057764;28;20040;-79
2022/07/02 03:10:12;;;;;;;0.00;0.00;;;;;;;16.38;60.47;102186.72;5067672;28;20182;-79
2022/07/02 03:12:38;;;;;;;0.00;0.00;;;;;;;16.38;60.54;102192.06;5057917;28;20025;-80
2022/07/02 03:15:05;;;;;;;0.10;0.10;;;;;;;16.38;60.53;102199.22;5056425;28;20374;-79
2022/07/02 03:17:31;;;;;;;0.00;0.00;;;;;;;16.37;60.24;102200.13;5055855;28;20051;-80
2022/07/02 03:19:57;;;;;;;0.03;0.03;;;;;;;16.33;60.47;102202.84;5067916;28;20162;-79
2022/07/02 03:22:23;;;;;;;0.10;0.10;;;;;;;16.31;60.35;102206.47;5058604;28;20033;-80
2022/07/02 03:24:50;;;;;;;0.00;0.00;;;;;;;16.28;60.14;102217.25;5055408;28;20400;-78
2022/07/02 03:27:16;;;;;;;0.00;0.00;;;;;;;16.28;59.89;102217.25;5055325;28;20025;-80
2022/07/02 03:29:42;;;;;;;0.10;0.10;;;;;;;16.25;60.26;102212.88;5067048;28;20033;-79
2022/07/02 03:32:08;;;;;;;0.00;0.00;;;;;;;16.25;60.02;102223.56;5055934;28;20036;-79
2022/07/02 03:34:34;;;;;;;0.00;0.00;;;;;;;16.24;60.21;102220.94;5054781;28;20024;-79
2022/07/02 03:37:01;;;;;;;0.10;0.10;;;;;;;16.23;60.51;102220.03;5055612;28;20032;-80
2022/07/02 03:39:27;;;;;;;0.03;0.03;;;;;;;16.21;60.27;102219.16;5067122;28;20035;-80
2022/07/02 03:41:53;;;;;;;0.00;0.00;;;;;;;16.19;60.40;102218.34;5053888;28;20574;-80
2022/07/02 03:44:19;;;;;;;0.00;0.00;;;;;;;16.17;60.42;102222.84;5058439;28;20059;-79
2022/07/02 03:46:45;;;;;;;0.05;0.05;;;;;;;16.16;60.38;102221.97;5055645;28;20108;-80
2022/07/02 03:49:11;;;;;;;0.10;0.10;;;;;;;16.17;60.88;102225.50;5064590;28;20506;-80
2022/07/02 03:51:37;;;;;;;0.10;0.10;;;;;;;16.15;61.02;102217.53;5056978;28;20041;-80
2022/07/02 03:54:04;;;;;;;0.00;0.00;;;;;;;16.16;60.61;102219.28;5058369;28;20029;-80
2022/07/02 03:56:30;;;;;;;0.03;0.03;;;;;;;16.15;60.65;102233.56;5061327;28;20016;-79
2022/07/02 03:58:56;;;;;;;0.00;0.00;;;;;;;16.16;60.96;102235.34;5068205;28;20037;-80
2022/07/02 04:01:22;;;;;;;0.00;0.00;;;;;;;16.16;60.81;102235.34;5055797;28;20028;-80
2022/07/02 04:03:48;;;;;;;0.10;0.10;;;;;;;16.17;60.96;102231.75;5057112;28;20505;-80
2022/07/02 04:06:14;;;;;;;0.05;0.05;;;;;;;16.15;60.59;102225.56;5056004;28;20033;-78
2022/07/02 04:08:40;;;;;;;0.00;0.00;;;;;;;16.15;60.49;102233.56;5057986;28;20028;-80
2022/07/02 04:11:07;;;;;;;0.00;0.00;;;;;;;16.18;60.25;102244.19;5056200;28;20142;-79
2022/07/02 04:13:33;;;;;;;0.08;0.08;;;;;;;16.16;60.29;102235.34;5056732;28;20033;-79
2022/07/02 04:15:59;;;;;;;0.10;0.10;;;;;;;16.19;60.72;102226.38;5055969;28;20029;-79
2022/07/02 04:18:25;;;;;;;0.10;0.10;;;;;;;16.17;61.04;102236.22;5072371;28;20468;-79
2022/07/02 04:20:51;;;;;;;0.10;0.10;;;;;;;16.11;61.22;102234.56;5055502;28;20027;-80
2022/07/02 04:23:17;;;;;;;0.43;0.43;;;;;;;16.24;60.49;102235.16;5054722;28;20086;-79
2022/07/02 04:25:43;;;;;;;0.05;0.05;;;;;;;16.25;60.42;102239.59;5052057;28;20028;-79
2022/07/02 04:28:11;;;;;;;0.03;0.03;;;;;;;16.26;60.54;102235.13;5074892;28;20039;-80
2022/07/02 04:30:37;;;;;;;0.10;0.10;;;;;;;16.28;60.44;102236.00;5054599;28;20410;-80
2022/07/02 04:33:03;;;;;;;0.10;0.10;;;;;;;16.25;60.60;102244.06;5055645;28;20086;-79
2022/07/02 04:35:30;;;;;;;2.38;0.90;;;;;;;16.30;60.40;102242.19;5055282;28;20033;-79
2022/07/02 04:37:56;;;;;;;0.10;0.10;;;;;;;16.33;60.59;102236.75;5070802;28;20090;-80
2022/07/02 04:40:22;;;;;;;0.00;0.00;;;;;;;16.37;60.38;102243.78;5052148;28;20036;-80
2022/07/02 04:42:48;;;;;;;0.10;0.10;;;;;;;16.36;60.87;102233.13;5052803;28;20025;-80
2022/07/02 04:45:14;;;;;;;0.10;0.10;;;;;;;16.46;60.32;102240.03;5064424;28;20036;-80
2022/07/02 04:47:41;;;;;;;0.00;0.00;;;;;;;16.49;60.48;102246.19;5061942;28;20043;-80
2022/07/02 04:50:07;;;;;;;0.00;0.00;;;;;;;16.52;60.50;102241.69;5064156;28;20033;-80
2022/07/02 04:52:33;;;;;;;0.20;0.20;;;;;;;16.49;61.09;102238.16;5056577;28;20024;-80
2022/07/02 04:54:59;;;;;;;1.00;0.95;;;;;;;16.55;60.92;102238.94;5054691;28;20287;-80
2022/07/02 04:57:26;;;;;;;0.10;0.10;;;;;;;16.61;60.81;102233.44;5054248;28;20485;-80
2022/07/02 04:59:52;;;;;;;0.00;0.00;;;;;;;16.59;61.52;102233.50;5051512;28;20037;-80
2022/07/02 05:02:18;;;;;;;0.10;0.10;;;;;;;16.60;61.22;102237.06;5056118;28;20059;-80
2022/07/02 05:04:44;;;;;;;0.10;0.10;;;;;;;16.72;61.17;102235.88;5053472;28;20080;-80
2022/07/02 05:07:11;;;;;;;0.00;0.00;;;;;;;16.72;61.03;102233.22;5053095;28;20025;-79
2022/07/02 05:09:37;;;;;;;0.00;0.00;;;;;;;16.70;61.29;102233.25;5058296;28;20060;-79
2022/07/02 05:12:03;;;;;;;0.00;0.00;;;;;;;16.77;60.91;102237.56;5050664;28;20033;-79
2022/07/02 05:14:29;;;;;;;0.00;0.00;;;;;;;16.88;61.13;102241.75;5056743;28;20032;-80
2022/07/02 05:16:55;;;;;;;0.00;0.00;;;;;;;16.91;61.22;102244.34;5056790;28;20031;-79
2022/07/02 05:19:21;;;;;;;0.00;0.00;;;;;;;16.97;61.45;102249.59;5059695;28;20033;-80
2022/07/02 05:21:47;;;;;;;0.10;0.10;;;;;;;16.98;60.92;102246.00;5051303;28;20036;-79
2022/07/02 05:24:14;;;;;;;0.00;0.00;;;;;;;17.07;60.67;102247.56;5053944;28;20040;-79
2022/07/02 05:26:40;;;;;;;0.00;0.00;;;;;;;17.08;60.85;102247.53;5067334;28;20170;-80
2022/07/02 05:29:06;;;;;;;0.10;0.10;;;;;;;17.13;60.16;102245.63;5061117;28;20028;-79
2022/07/02 05:31:32;;;;;;;0.00;0.00;;;;;;;17.16;60.54;102243.78;5048461;28;20049;-79
2022/07/02 05:33:58;;;;;;;0.00;0.00;;;;;;;17.25;60.14;102251.59;5050895;28;20040;-80
2022/07/02 05:36:24;;;;;;;0.10;0.10;;;;;;;17.13;59.98;102247.41;5068858;28;20254;-80
2022/07/02 05:38:50;;;;;;;0.65;0.35;;;;;;;17.33;59.73;102241.53;5058476;28;20462;-79
2022/07/02 05:41:16;;;;;;;0.00;0.00;;;;;;;17.36;59.96;102243.25;5051197;28;20047;-79
2022/07/02 05:43:42;;;;;;;0.50;0.50;;;;;;;17.38;59.67;102244.13;5052904;28;20713;-79
2022/07/02 05:46:09;;;;;;;0.65;0.65;;;;;;;17.43;59.35;102242.19;5069568;28;20033;-80
2022/07/02 05:48:36;;;;;;;0.00;0.00;;;;;;;17.52;59.12;102241.97;5057234;28;20052;-80
2022/07/02 05:51:03;;;;;;;0.00;0.00;;;;;;;17.60;59.65;102237.25;5053754;28;20056;-79
2022/07/02 05:53:29;;;;;;;0.00;0.00;;;;;;;17.67;59.19;102229.94;5052321;28;20032;-80
2022/07/02 05:55:55;;;;;;;0.10;0.10;;;;;;;17.65;59.44;102229.09;5068204;28;20024;-80
2022/07/02 05:58:21;;;;;;;0.05;0.05;;;;;;;17.70;58.63;102237.88;5056239;28;20404;-80
2022/07/02 06:00:47;;;;;;;0.00;0.00;;;;;;;17.81;58.42;102242.06;5054557;28;20112;-79
2022/07/02 06:03:13;;;;;;;0.00;0.00;;;;;;;17.86;58.70;102241.00;5056573;28;20044;-80
2022/07/02 06:08:25;;;;;;;0.10;0.10;;;;;;;17.96;57.91;102249.72;5039729;28;20499;-80
2022/07/02 06:10:53;;;;;;;0.05;0.05;;;;;;;18.04;57.73;102249.50;5050826;28;20032;-80
2022/07/02 06:13:19;;;;;;;0.10;0.10;;;;;;;18.04;57.97;102247.66;5052176;28;20029;-80
2022/07/02 06:15:45;;;;;;;0.00;0.00;;;;;;;18.09;57.76;102255.59;5067093;28;20031;-79
2022/07/02 06:18:14;;;;;;;0.00;0.00;;;;;;;18.14;57.43;102250.97;5056167;28;20118;-80
2022/07/02 06:20:40;;;;;;;0.00;0.00;;;;;;;18.14;57.11;102260.84;5058405;28;20028;-79
2022/07/02 06:23:06;;;;;;;0.05;0.05;;;;;;;18.25;56.58;102259.56;5052799;28;20460;-79
2022/07/02 06:25:33;;;;;;;0.00;0.00;;;;;;;18.36;56.65;102253.91;5055822;28;20029;-79
2022/07/02 06:28:00;;;;;;;0.00;0.00;;;;;;;18.27;55.73;102257.72;5072604;28;20035;-80
2022/07/02 06:30:26;;;;;;;0.10;0.10;;;;;;;18.49;55.99;102264.25;5052444;28;20058;-80
2022/07/02 06:32:52;;;;;;;0.00;0.00;;;;;;;18.55;56.39;102256.88;5054258;28;20112;-80
2022/07/02 06:35:18;;;;;;;0.00;0.00;;;;;;;18.59;55.05;102263.03;5065468;28;20033;-79
2022/07/02 06:37:44;;;;;;;0.00;0.00;;;;;;;18.61;54.52;102263.00;5061845;28;20111;-79
2022/07/02 06:40:11;;;;;;;0.03;0.03;;;;;;;18.66;54.27;102267.28;5059009;28;20028;-80
2022/07/02 06:42:37;;;;;;;0.30;0.30;;;;;;;18.71;54.67;102270.72;5051830;28;20059;-79
2022/07/02 06:45:03;;;;;;;0.00;0.00;;;;;;;18.84;54.71;102267.63;5063007;28;20028;-79
2022/07/02 06:47:31;;;;;;;0.00;0.00;;;;;;;18.86;53.67;102271.16;5063948;28;20397;-80
2022/07/02 06:49:58;;;;;;;0.10;0.10;;;;;;;18.93;53.61;102270.06;5070542;28;20055;-80
2022/07/02 06:52:26;;;;;;;0.10;0.10;;;;;;;19.04;53.57;102267.91;5044929;28;20033;-80
2022/07/02 06:54:52;;;;;;;0.03;0.03;;;;;;;19.07;53.35;102265.09;5054679;28;20035;-80
2022/07/02 06:57:18;;;;;;;0.20;0.20;;;;;;;19.00;52.06;102273.44;5056558;28;20025;-80
2022/07/02 06:59:44;;;;;;;0.00;0.00;;;;;;;19.16;52.50;102268.44;5063000;28;20036;-80
2022/07/02 07:02:11;;;;;;;0.05;0.05;;;;;;;19.24;52.20;102269.06;5052737;28;20032;-80
2022/07/02 07:04:37;;;;;;;0.77;0.57;;;;;;;19.20;51.99;102270.97;5047408;28;20123;-80
2022/07/02 07:07:05;;;;;;;0.00;0.00;;;;;;;19.33;52.00;102274.13;5064645;28;20012;-80
2022/07/02 07:09:34;;;;;;;0.00;0.00;;;;;;;19.39;50.92;102276.59;5065285;28;20032;-80
2022/07/02 07:12:01;;;;;;;0.05;0.05;;;;;;;19.45;50.64;102278.19;5056805;28;20052;-80
2022/07/02 07:14:28;;;;;;;1.75;0.85;;;;;;;19.54;49.27;102285.94;5055725;28;20029;-80
2022/07/02 07:16:55;;;;;;;0.10;0.10;;;;;;;19.66;49.50;102279.22;5063769;28;20052;-80
2022/07/02 07:19:21;;;;;;;0.10;0.10;;;;;;;19.77;49.40;102269.94;5066739;28;20033;-80
2022/07/02 07:21:47;;;;;;;0.10;0.10;;;;;;;19.72;48.27;102273.63;5057825;28;20029;-80
2022/07/02 07:24:13;;;;;;;0.10;0.10;;;;;;;19.88;48.72;102273.13;5055499;28;20044;-80
2022/07/02 07:26:39;;;;;;;0.10;0.10;;;;;;;19.94;47.41;102270.22;5061284;28;20016;-80
2022/07/02 07:29:06;;;;;;;0.10;0.10;;;;;;;19.98;47.06;102262.91;5067849;28;20071;-79
2022/07/02 07:31:33;;;;;;;0.10;0.10;;;;;;;19.97;48.13;102264.72;5052078;28;20040;-80
2022/07/02 07:34:00;;;;;;;0.10;0.10;;;;;;;20.07;48.45;102261.69;5055736;28;20452;-80
2022/07/02 07:36:26;;;;;;;0.00;0.00;;;;;;;20.01;46.19;102263.69;5059370;28;20052;-80
2022/07/02 07:38:53;;;;;;;0.10;0.10;;;;;;;20.26;47.58;102261.88;5069894;28;20045;-80
2022/07/02 07:41:21;;;;;;;0.10;0.10;;;;;;;20.27;48.20;102259.09;5056484;28;20068;-80
2022/07/02 07:43:47;;;;;;;0.10;0.10;;;;;;;20.33;46.94;102258.88;5055103;28;20029;-80
2022/07/02 07:46:14;;;;;;;0.10;0.10;;;;;;;20.38;47.27;102268.59;5058221;28;20029;-80
2022/07/02 07:48:40;;;;;;;0.10;0.10;;;;;;;20.33;47.47;102269.63;5066514;28;20032;-79
2022/07/02 07:51:06;;;;;;;0.10;0.10;;;;;;;20.48;47.18;102267.31;5042872;28;20032;-79
2022/07/02 07:53:33;;;;;;;0.10;0.10;;;;;;;20.55;47.26;102263.44;5052904;28;20048;-79
2022/07/02 07:55:59;;;;;;;0.10;0.10;;;;;;;20.59;47.32;102256.97;5055748;28;20060;-80
2022/07/02 07:58:25;;;;;;;0.00;0.00;;;;;;;20.72;47.00;102259.22;5072227;28;20035;-80
2022/07/02 08:00:52;;;;;;;0.10;0.10;;;;;;;20.76;46.72;102259.03;5048456;28;20100;-80
2022/07/02 08:03:19;;;;;;;2.28;0.65;;;;;;;20.83;46.20;102254.25;5056782;28;20032;-79
2022/07/02 08:05:46;;;;;;;0.08;0.08;;;;;;;20.91;46.22;102257.53;5053361;28;20032;-80
2022/07/02 08:08:13;;;;;;;0.05;0.05;;;;;;;20.96;46.44;102247.44;5058174;28;20095;-79
2022/07/02 08:10:40;;;;;;;0.10;0.10;;;;;;;21.04;45.54;102247.13;5054741;28;20087;-80
2022/07/02 08:13:06;;;;;;;0.10;0.10;;;;;;;21.15;45.79;102252.06;5052951;28;20102;-80
2022/07/02 08:15:32;;;;;;;0.10;0.10;;;;;;;21.22;45.36;102248.16;5062419;28;20035;-80
2022/07/02 08:17:58;;;;;;;0.10;0.10;;;;;;;21.24;43.71;102251.66;5054513;28;20242;-79
2022/07/02 08:20:24;;;;;;;0.10;0.10;;;;;;;21.31;45.16;102253.16;5048553;28;20036;-80
2022/07/02 08:22:51;;;;;;;0.25;0.25;;;;;;;21.43;44.92;102251.75;5052169;28;20029;-83
2022/07/02 08:25:18;;;;;;;0.10;0.10;;;;;;;21.49;44.21;102246.06;5056021;28;20405;-82
2022/07/02 08:27:44;;;;;;;0.10;0.10;;;;;;;21.60;45.18;102242.94;5051584;28;20488;-82
2022/07/02 08:30:11;;;;;;;0.05;0.05;;;;;;;21.62;43.13;102257.25;5059004;28;21614;-81
2022/07/02 08:32:38;;;;;;;0.05;0.05;;;;;;;21.71;43.72;102245.16;5071208;28;20033;-79
2022/07/02 08:35:05;;;;;;;0.10;0.10;;;;;;;21.81;42.29;102251.88;5065049;28;20025;-80
2022/07/02 08:37:32;;;;;;;0.08;0.08;;;;;;;21.83;41.05;102251.81;5063894;28;20103;-79
2022/07/02 08:39:58;;;;;;;0.00;0.00;;;;;;;21.92;42.84;102247.81;5059248;28;20033;-80
2022/07/02 08:45:03;;;;;;;0.10;0.10;;;;;;;22.14;42.35;102242.31;5126510;27;20402;-80
2022/07/02 08:47:30;;;;;;;0.10;0.10;;;;;;;22.20;41.85;102236.63;5133178;27;20059;-80
2022/07/02 08:49:58;;;;;;;0.10;0.10;;;;;;;22.23;41.14;102246.41;5124222;28;20020;-80
2022/07/02 08:52:25;;;;;;;0.10;0.10;;;;;;;22.20;39.99;102244.72;5118019;28;20087;-78
2022/07/02 08:54:52;;;;;;;0.10;0.10;;;;;;;22.32;41.41;102235.19;5114082;27;20028;-78
2022/07/02 08:57:21;;;;;;;0.10;0.10;;;;;;;22.40;40.78;102233.00;5104709;28;20027;-79
2022/07/02 08:59:47;;;;;;;0.10;0.10;;;;;;;22.46;41.31;102232.72;5107098;27;20123;-79
2022/07/02 09:02:15;;;;;;;0.10;0.10;;;;;;;22.60;41.13;102236.56;5100465;28;20598;-79
2022/07/02 09:04:47;;;;;;;0.10;0.10;;;;;;;22.67;39.42;102237.13;5120232;27;20032;-78
2022/07/02 09:07:15;;;;;;;0.05;0.05;;;;;;;22.64;38.76;102226.50;5105140;28;20032;-79
2022/07/02 09:09:42;;;;;;;0.00;0.00;;;;;;;22.77;38.88;102219.53;5099575;28;20035;-79
2022/07/02 09:12:11;;;;;;;0.10;0.10;;;;;;;22.81;39.15;102212.16;5112661;28;20032;-78
2022/07/02 09:14:38;;;;;;;0.05;0.05;;;;;;;22.86;39.36;102219.06;5105164;27;20019;-79
2022/07/02 09:17:07;;;;;;;0.10;0.10;;;;;;;22.98;39.65;102217.59;5110313;28;20047;-78
2022/07/02 09:19:34;;;;;;;0.00;0.00;;;;;;;23.10;39.88;102216.06;5096985;28;20032;-77
2022/07/02 09:22:00;;;;;;;0.10;0.10;;;;;;;23.12;39.07;102213.31;5096927;27;20035;-79
2022/07/02 09:27:08;;;;;;;0.10;0.10;;;;;;;23.43;39.44;102218.03;5066707;28;20380;-80
2022/07/02 09:29:52;;;;;;;0.10;0.10;;;;;;;23.56;40.66;102212.81;5050775;28;20087;-78
2022/07/02 09:32:20;;;;;;;0.10;0.10;;;;;;;23.59;40.09;102204.56;5049179;28;20120;-79
2022/07/02 09:34:50;;;;;;;0.10;0.10;;;;;;;23.64;38.96;102205.19;5050118;28;20033;-78
2022/07/02 09:37:18;;;;;;;0.10;0.10;;;;;;;23.67;39.46;102209.56;5049096;28;20029;-79
2022/07/02 09:39:46;;;;;;;0.10;0.10;;;;;;;23.76;41.07;102206.34;5047408;28;20025;-80
2022/07/02 09:42:25;;;;;;;0.10;0.10;;;;;;;23.86;39.12;102204.00;5047314;28;20048;-80
2022/07/02 09:44:52;;;;;;;0.10;0.10;;;;;;;24.03;39.66;102211.25;5046410;28;20056;-80
2022/07/02 09:47:30;;;;;;;0.10;0.10;;;;;;;24.18;38.54;102194.13;5049097;28;20512;-80
2022/07/02 09:49:57;;;;;;;0.15;0.15;;;;;;;24.21;38.55;102191.25;5048998;28;20112;-81
2022/07/02 09:52:23;;;;;;;0.10;0.10;;;;;;;24.31;37.52;102179.88;5048606;28;20034;-80
2022/07/02 09:54:49;;;;;;;0.20;0.20;;;;;;;24.37;38.82;102184.97;5044031;28;20374;-78
2022/07/02 09:57:15;;;;;;;0.10;0.10;;;;;;;24.48;39.18;102187.06;5037706;28;20026;-78
2022/07/02 09:59:41;;;;;;;0.10;0.10;;;;;;;24.47;37.75;102186.16;5034790;28;20037;-78
2022/07/02 10:02:24;;;;;;;0.10;0.10;;;;;;;24.67;36.39;102192.31;5038852;28;20083;-78
2022/07/02 10:04:52;;;;;;;0.10;0.10;;;;;;;24.77;37.72;102188.06;5037824;28;20424;-84
2022/07/02 10:07:21;;;;;;;0.15;0.15;;;;;;;24.93;38.54;102185.34;5042101;28;20033;-78
2022/07/02 10:09:48;;;;;;;0.00;0.00;;;;;;;25.07;38.06;102187.22;5045842;28;20517;-78
2022/07/02 10:12:15;;;;;;;0.10;0.10;;;;;;;25.15;35.53;102184.91;5047608;28;20037;-78
2022/07/02 10:14:44;;;;;;;0.10;0.10;;;;;;;25.31;36.16;102179.44;5048781;28;20068;-78
2022/07/02 10:17:12;;;;;;;0.10;0.10;;;;;;;25.52;37.43;102181.81;5046658;28;20029;-78
2022/07/02 10:19:39;;;;;;;0.10;0.10;;;;;;;25.69;36.79;102172.59;5046059;28;20041;-79
2022/07/02 10:22:07;;;;;;;0.20;0.20;;;;;;;25.87;34.88;102175.13;5047364;28;20029;-78
2022/07/02 10:24:34;;;;;;;0.10;0.10;;;;;;;25.96;34.35;102166.41;5048308;28;20540;-78
2022/07/02 10:27:01;;;;;;;0.03;0.03;;;;;;;25.81;31.68;102166.41;5046047;28;20036;-78
2022/07/02 10:29:29;;;;;;;0.10;0.10;;;;;;;25.97;32.43;102160.88;5049724;28;20531;-79
2022/07/02 10:32:06;;;;;;;0.10;0.10;;;;;;;25.89;36.13;102163.19;5049546;28;20061;-78
2022/07/02 10:35:12;;;;;;;0.00;0.00;;;;;;;25.89;35.56;102168.63;5048465;28;20029;-78
2022/07/02 10:37:39;;;;;;;0.10;0.10;;;;;;;25.60;35.36;102162.34;5037237;28;20521;-77
2022/07/02 10:40:06;;;;;;;0.00;0.00;;;;;;;25.41;33.00;102170.75;5034784;28;20059;-78
2022/07/02 10:42:44;;;;;;;0.10;0.10;;;;;;;25.56;34.44;102166.19;5034545;28;20029;-78
2022/07/02 10:45:14;;;;;;;0.05;0.05;;;;;;;25.67;33.53;102161.84;5035121;28;20022;-78
2022/07/02 10:48:01;;;;;;;0.95;0.95;;;;;;;25.72;32.71;102166.13;5034557;28;20460;-78
2022/07/02 10:53:13;;;;;;;0.10;0.10;;;;;;;25.71;32.57;102153.50;5070868;28;20365;-77
2022/07/02 10:55:43;;;;;;;0.15;0.15;;;;;;;25.75;33.57;102152.38;5050498;28;20025;-78
2022/07/02 10:58:19;;;;;;;0.10;0.10;;;;;;;25.98;36.18;102156.28;5049882;28;20045;-78
2022/07/02 11:00:45;;;;;;;0.10;0.10;;;;;;;26.02;34.70;102156.97;5050360;28;20053;-78
2022/07/02 11:03:27;;;;;;;0.10;0.10;;;;;;;26.24;35.02;102156.47;5051013;28;20056;-77
2022/07/02 11:05:58;;;;;;;0.20;0.20;;;;;;;26.46;35.83;102151.34;5049245;28;20033;-78
2022/07/02 11:08:46;;;;;;;0.10;0.10;;;;;;;26.94;34.33;102155.44;5050374;28;20446;-78
2022/07/02 11:11:18;;;;;;;0.00;0.00;;;;;;;27.16;34.76;102154.81;5043701;28;20025;-78
2022/07/02 11:16:25;;;;;;;0.10;0.10;;;;;;;27.31;33.82;102147.41;5110822;27;20335;-78
2022/07/02 11:18:53;;;;;;;0.10;0.10;;;;;;;27.56;33.69;102140.25;5110659;28;20028;-77
2022/07/02 11:21:21;;;;;;;0.10;0.10;;;;;;;27.55;32.16;102142.13;5109695;28;20497;-77
2022/07/02 11:23:48;;;;;;;0.05;0.05;;;;;;;27.76;31.91;102144.25;5109405;28;20167;-78
2022/07/02 11:26:20;;;;;;;0.03;0.03;;;;;;;27.81;31.15;102150.22;5109128;28;20110;-78
2022/07/02 11:28:46;;;;;;;0.10;0.10;;;;;;;27.89;32.74;102141.53;5110228;28;20031;-78
2022/07/02 11:31:12;;;;;;;7.63;0.85;;;;;;;27.92;31.82;102133.97;5109885;28;20028;-77
2022/07/02 11:33:44;;;;;;;0.10;0.10;;;;;;;27.76;31.50;102139.69;5111488;28;20506;-78
2022/07/02 11:36:11;;;;;;;0.10;0.10;;;;;;;27.64;34.21;102132.41;5105782;28;20035;-77
2022/07/02 11:38:38;;;;;;;0.30;0.30;;;;;;;27.46;34.10;102133.75;5108555;28;20048;-78
2022/07/02 11:41:15;;;;;;;0.10;0.10;;;;;;;27.42;33.92;102117.63;5109130;28;20114;-77
2022/07/02 11:43:44;;;;;;;0.10;0.10;;;;;;;27.52;35.04;102120.56;5109885;28;20449;-77
2022/07/02 11:46:13;;;;;;;0.00;0.00;;;;;;;27.82;33.40;102107.53;5110146;28;20487;-77